sensor_id;sensor_type;location;lat;lon;timestamp;P1;durP1;ratioP1;P2;durP2;ratioP2
1613;SDS011;800;48.824;9.346;2022-08-21T00:00:11;4.63;;;3.20;;
1613;SDS011;800;48.824;9.346;2022-08-21T00:02:47;3.83;;;2.67;;
1613;SDS011;800;48.824;9.346;2022-08-21T00:05:18;4.20;;;3.27;;
1613;SDS011;800;48.824;9.346;2022-08-21T00:07:44;3.70;;;3.37;;
1613;SDS011;800;48.824;9.346;2022-08-21T00:10:10;3.03;;;2.47;;
1613;SDS011;800;48.824;9.346;2022-08-21T00:12:36;3.03;;;2.83;;
1613;SDS011;800;48.824;9.346;2022-08-21T00:15:03;3.67;;;3.37;;
1613;SDS011;800;48.824;9.346;2022-08-21T00:17:30;3.60;;;3.20;;
1613;SDS011;800;48.824;9.346;2022-08-21T00:19:56;4.63;;;2.77;;
1613;SDS011;800;48.824;9.346;2022-08-21T00:22:21;3.70;;;2.80;;
1613;SDS011;800;48.824;9.346;2022-08-21T00:24:47;3.50;;;2.70;;
1613;SDS011;800;48.824;9.346;2022-08-21T00:27:12;3.23;;;3.00;;
1613;SDS011;800;48.824;9.346;2022-08-21T00:29:38;3.43;;;3.07;;
1613;SDS011;800;48.824;9.346;2022-08-21T00:32:04;4.70;;;2.93;;
1613;SDS011;800;48.824;9.346;2022-08-21T00:34:30;3.43;;;3.23;;
1613;SDS011;800;48.824;9.346;2022-08-21T00:36:55;3.23;;;3.03;;
1613;SDS011;800;48.824;9.346;2022-08-21T00:39:21;7.60;;;3.00;;
1613;SDS011;800;48.824;9.346;2022-08-21T00:41:47;2.90;;;2.70;;
1613;SDS011;800;48.824;9.346;2022-08-21T00:44:13;3.30;;;3.00;;
1613;SDS011;800;48.824;9.346;2022-08-21T00:46:39;3.33;;;2.53;;
1613;SDS011;800;48.824;9.346;2022-08-21T00:49:07;2.97;;;2.77;;
1613;SDS011;800;48.824;9.346;2022-08-21T00:51:42;3.40;;;3.13;;
1613;SDS011;800;48.824;9.346;2022-08-21T00:54:13;3.13;;;2.93;;
1613;SDS011;800;48.824;9.346;2022-08-21T00:56:39;3.57;;;2.80;;
1613;SDS011;800;48.824;9.346;2022-08-21T00:59:05;3.67;;;3.30;;
1613;SDS011;800;48.824;9.346;2022-08-21T01:01:32;3.70;;;3.20;;
1613;SDS011;800;48.824;9.346;2022-08-21T01:03:58;3.40;;;3.10;;
1613;SDS011;800;48.824;9.346;2022-08-21T01:06:24;2.40;;;2.20;;
1613;SDS011;800;48.824;9.346;2022-08-21T01:08:50;4.90;;;3.17;;
1613;SDS011;800;48.824;9.346;2022-08-21T01:11:15;3.10;;;2.90;;
1613;SDS011;800;48.824;9.346;2022-08-21T01:13:42;2.63;;;2.40;;
1613;SDS011;800;48.824;9.346;2022-08-21T01:16:12;2.57;;;2.37;;
1613;SDS011;800;48.824;9.346;2022-08-21T01:18:42;2.60;;;2.40;;
1613;SDS011;800;48.824;9.346;2022-08-21T01:21:09;2.40;;;2.30;;
1613;SDS011;800;48.824;9.346;2022-08-21T01:23:44;2.60;;;2.40;;
1613;SDS011;800;48.824;9.346;2022-08-21T01:26:13;2.77;;;2.57;;
1613;SDS011;800;48.824;9.346;2022-08-21T01:28:46;3.13;;;2.50;;
1613;SDS011;800;48.824;9.346;2022-08-21T01:31:22;3.00;;;2.40;;
1613;SDS011;800;48.824;9.346;2022-08-21T01:33:49;2.50;;;2.30;;
1613;SDS011;800;48.824;9.346;2022-08-21T01:36:15;3.20;;;2.90;;
1613;SDS011;800;48.824;9.346;2022-08-21T01:38:41;3.13;;;2.87;;
1613;SDS011;800;48.824;9.346;2022-08-21T01:41:07;2.87;;;2.67;;
1613;SDS011;800;48.824;9.346;2022-08-21T01:43:33;3.40;;;2.80;;
1613;SDS011;800;48.824;9.346;2022-08-21T01:45:58;2.93;;;2.70;;
1613;SDS011;800;48.824;9.346;2022-08-21T01:48:24;3.03;;;2.83;;
1613;SDS011;800;48.824;9.346;2022-08-21T01:50:50;2.83;;;2.63;;
1613;SDS011;800;48.824;9.346;2022-08-21T01:53:15;2.67;;;2.57;;
1613;SDS011;800;48.824;9.346;2022-08-21T01:55:42;2.67;;;2.47;;
1613;SDS011;800;48.824;9.346;2022-08-21T01:58:08;2.80;;;2.30;;
1613;SDS011;800;48.824;9.346;2022-08-21T02:00:34;3.07;;;2.80;;
1613;SDS011;800;48.824;9.346;2022-08-21T02:03:00;3.00;;;2.03;;
1613;SDS011;800;48.824;9.346;2022-08-21T02:05:25;3.83;;;3.43;;
1613;SDS011;800;48.824;9.346;2022-08-21T02:07:52;4.50;;;2.67;;
1613;SDS011;800;48.824;9.346;2022-08-21T02:10:21;5.27;;;3.20;;
1613;SDS011;800;48.824;9.346;2022-08-21T02:12:49;4.23;;;3.03;;
1613;SDS011;800;48.824;9.346;2022-08-21T02:15:15;3.00;;;2.80;;
1613;SDS011;800;48.824;9.346;2022-08-21T02:17:42;13.50;;;3.23;;
1613;SDS011;800;48.824;9.346;2022-08-21T02:20:11;3.13;;;2.83;;
1613;SDS011;800;48.824;9.346;2022-08-21T02:22:42;2.20;;;2.10;;
1613;SDS011;800;48.824;9.346;2022-08-21T02:25:08;2.40;;;2.30;;
1613;SDS011;800;48.824;9.346;2022-08-21T02:27:41;2.80;;;2.60;;
1613;SDS011;800;48.824;9.346;2022-08-21T02:30:09;2.80;;;2.10;;
1613;SDS011;800;48.824;9.346;2022-08-21T02:32:37;5.97;;;3.13;;
1613;SDS011;800;48.824;9.346;2022-08-21T02:35:03;3.30;;;3.00;;
1613;SDS011;800;48.824;9.346;2022-08-21T02:37:29;3.03;;;2.83;;
1613;SDS011;800;48.824;9.346;2022-08-21T02:39:54;4.97;;;2.83;;
1613;SDS011;800;48.824;9.346;2022-08-21T02:42:20;3.43;;;3.13;;
1613;SDS011;800;48.824;9.346;2022-08-21T02:44:46;4.33;;;2.80;;
1613;SDS011;800;48.824;9.346;2022-08-21T02:47:11;9.90;;;3.13;;
1613;SDS011;800;48.824;9.346;2022-08-21T02:49:38;2.67;;;2.50;;
1613;SDS011;800;48.824;9.346;2022-08-21T02:52:04;4.50;;;2.73;;
1613;SDS011;800;48.824;9.346;2022-08-21T02:54:30;2.50;;;2.23;;
1613;SDS011;800;48.824;9.346;2022-08-21T02:56:57;2.47;;;2.27;;
1613;SDS011;800;48.824;9.346;2022-08-21T02:59:22;1.90;;;1.80;;
1613;SDS011;800;48.824;9.346;2022-08-21T03:01:48;3.80;;;2.90;;
1613;SDS011;800;48.824;9.346;2022-08-21T03:04:14;3.30;;;3.00;;
1613;SDS011;800;48.824;9.346;2022-08-21T03:06:39;3.77;;;2.70;;
1613;SDS011;800;48.824;9.346;2022-08-21T03:09:05;2.33;;;2.13;;
1613;SDS011;800;48.824;9.346;2022-08-21T03:11:31;2.93;;;2.73;;
1613;SDS011;800;48.824;9.346;2022-08-21T03:13:56;6.93;;;2.90;;
1613;SDS011;800;48.824;9.346;2022-08-21T03:16:22;11.27;;;2.70;;
1613;SDS011;800;48.824;9.346;2022-08-21T03:18:47;3.13;;;2.93;;
1613;SDS011;800;48.824;9.346;2022-08-21T03:21:13;2.50;;;2.30;;
1613;SDS011;800;48.824;9.346;2022-08-21T03:23:39;2.77;;;2.30;;
1613;SDS011;800;48.824;9.346;2022-08-21T03:26:06;2.20;;;2.10;;
1613;SDS011;800;48.824;9.346;2022-08-21T03:28:33;2.30;;;2.20;;
1613;SDS011;800;48.824;9.346;2022-08-21T03:30:59;3.90;;;3.17;;
1613;SDS011;800;48.824;9.346;2022-08-21T03:33:24;3.90;;;2.50;;
1613;SDS011;800;48.824;9.346;2022-08-21T03:38:45;3.10;;;2.90;;
1613;SDS011;800;48.824;9.346;2022-08-21T03:41:10;2.40;;;2.30;;
1613;SDS011;800;48.824;9.346;2022-08-21T03:43:36;3.00;;;2.80;;
1613;SDS011;800;48.824;9.346;2022-08-21T03:46:03;3.03;;;2.30;;
1613;SDS011;800;48.824;9.346;2022-08-21T03:48:30;2.53;;;2.37;;
1613;SDS011;800;48.824;9.346;2022-08-21T03:50:56;2.67;;;2.50;;
1613;SDS011;800;48.824;9.346;2022-08-21T03:53:22;2.33;;;2.23;;
1613;SDS011;800;48.824;9.346;2022-08-21T03:55:49;2.90;;;2.70;;
1613;SDS011;800;48.824;9.346;2022-08-21T03:58:16;2.50;;;2.30;;
1613;SDS011;800;48.824;9.346;2022-08-21T04:00:47;2.80;;;2.60;;
1613;SDS011;800;48.824;9.346;2022-08-21T04:03:14;2.70;;;2.50;;
1613;SDS011;800;48.824;9.346;2022-08-21T04:05:40;2.50;;;2.30;;
1613;SDS011;800;48.824;9.346;2022-08-21T04:08:06;2.33;;;2.23;;
1613;SDS011;800;48.824;9.346;2022-08-21T04:10:34;2.60;;;2.40;;
1613;SDS011;800;48.824;9.346;2022-08-21T04:13:02;2.27;;;2.17;;
1613;SDS011;800;48.824;9.346;2022-08-21T04:15:29;2.30;;;2.10;;
1613;SDS011;800;48.824;9.346;2022-08-21T04:17:55;2.00;;;1.90;;
1613;SDS011;800;48.824;9.346;2022-08-21T04:20:21;1.70;;;1.60;;
1613;SDS011;800;48.824;9.346;2022-08-21T04:22:48;2.23;;;2.13;;
1613;SDS011;800;48.824;9.346;2022-08-21T04:25:15;1.97;;;1.87;;
1613;SDS011;800;48.824;9.346;2022-08-21T04:27:42;2.50;;;2.30;;
1613;SDS011;800;48.824;9.346;2022-08-21T04:30:08;2.30;;;2.10;;
1613;SDS011;800;48.824;9.346;2022-08-21T04:32:35;2.43;;;2.03;;
1613;SDS011;800;48.824;9.346;2022-08-21T04:35:04;1.70;;;1.60;;
1613;SDS011;800;48.824;9.346;2022-08-21T04:37:31;2.20;;;2.00;;
1613;SDS011;800;48.824;9.346;2022-08-21T04:39:57;2.03;;;1.80;;
1613;SDS011;800;48.824;9.346;2022-08-21T04:42:27;2.47;;;2.00;;
1613;SDS011;800;48.824;9.346;2022-08-21T04:44:53;2.73;;;2.53;;
1613;SDS011;800;48.824;9.346;2022-08-21T04:47:20;1.90;;;1.80;;
1613;SDS011;800;48.824;9.346;2022-08-21T04:49:46;2.00;;;1.90;;
1613;SDS011;800;48.824;9.346;2022-08-21T04:52:12;3.83;;;2.30;;
1613;SDS011;800;48.824;9.346;2022-08-21T04:54:41;2.30;;;2.20;;
1613;SDS011;800;48.824;9.346;2022-08-21T04:57:08;2.20;;;2.10;;
1613;SDS011;800;48.824;9.346;2022-08-21T04:59:37;3.67;;;2.40;;
1613;SDS011;800;48.824;9.346;2022-08-21T05:02:05;2.10;;;2.00;;
1613;SDS011;800;48.824;9.346;2022-08-21T05:04:33;3.13;;;1.77;;
1613;SDS011;800;48.824;9.346;2022-08-21T05:07:02;3.50;;;1.93;;
1613;SDS011;800;48.824;9.346;2022-08-21T05:09:31;2.10;;;2.00;;
1613;SDS011;800;48.824;9.346;2022-08-21T05:11:57;1.73;;;1.63;;
1613;SDS011;800;48.824;9.346;2022-08-21T05:14:23;3.73;;;1.57;;
1613;SDS011;800;48.824;9.346;2022-08-21T05:16:50;1.93;;;1.77;;
1613;SDS011;800;48.824;9.346;2022-08-21T05:19:16;2.73;;;1.90;;
1613;SDS011;800;48.824;9.346;2022-08-21T05:21:43;2.63;;;2.07;;
1613;SDS011;800;48.824;9.346;2022-08-21T05:24:10;1.50;;;1.40;;
1613;SDS011;800;48.824;9.346;2022-08-21T05:26:36;2.07;;;1.87;;
1613;SDS011;800;48.824;9.346;2022-08-21T05:29:03;8.20;;;6.70;;
1613;SDS011;800;48.824;9.346;2022-08-21T05:31:28;5.27;;;4.37;;
1613;SDS011;800;48.824;9.346;2022-08-21T05:33:54;5.37;;;4.87;;
1613;SDS011;800;48.824;9.346;2022-08-21T05:36:20;7.70;;;3.40;;
1613;SDS011;800;48.824;9.346;2022-08-21T05:38:47;2.60;;;2.40;;
1613;SDS011;800;48.824;9.346;2022-08-21T05:41:12;2.87;;;2.67;;
1613;SDS011;800;48.824;9.346;2022-08-21T05:43:38;2.10;;;2.00;;
1613;SDS011;800;48.824;9.346;2022-08-21T05:46:04;3.40;;;2.63;;
1613;SDS011;800;48.824;9.346;2022-08-21T05:48:31;2.23;;;2.07;;
1613;SDS011;800;48.824;9.346;2022-08-21T05:50:57;4.20;;;2.07;;
1613;SDS011;800;48.824;9.346;2022-08-21T05:53:28;3.33;;;3.03;;
1613;SDS011;800;48.824;9.346;2022-08-21T05:55:54;2.80;;;2.60;;
1613;SDS011;800;48.824;9.346;2022-08-21T05:58:20;3.20;;;2.90;;
1613;SDS011;800;48.824;9.346;2022-08-21T06:00:48;3.23;;;2.77;;
1613;SDS011;800;48.824;9.346;2022-08-21T06:03:15;2.00;;;1.90;;
1613;SDS011;800;48.824;9.346;2022-08-21T06:05:45;2.47;;;1.80;;
1613;SDS011;800;48.824;9.346;2022-08-21T06:08:12;2.40;;;2.27;;
1613;SDS011;800;48.824;9.346;2022-08-21T06:10:39;2.20;;;1.80;;
1613;SDS011;800;48.824;9.346;2022-08-21T06:13:05;2.70;;;2.30;;
1613;SDS011;800;48.824;9.346;2022-08-21T06:15:30;2.20;;;2.10;;
1613;SDS011;800;48.824;9.346;2022-08-21T06:17:56;2.00;;;1.90;;
1613;SDS011;800;48.824;9.346;2022-08-21T06:20:22;3.00;;;2.13;;
1613;SDS011;800;48.824;9.346;2022-08-21T06:22:48;2.30;;;2.10;;
1613;SDS011;800;48.824;9.346;2022-08-21T06:25:13;2.90;;;2.70;;
1613;SDS011;800;48.824;9.346;2022-08-21T06:27:39;2.27;;;2.17;;
1613;SDS011;800;48.824;9.346;2022-08-21T06:30:05;3.43;;;2.30;;
1613;SDS011;800;48.824;9.346;2022-08-21T06:32:32;2.07;;;1.97;;
1613;SDS011;800;48.824;9.346;2022-08-21T06:34:58;1.70;;;1.60;;
1613;SDS011;800;48.824;9.346;2022-08-21T06:37:23;2.70;;;2.50;;
1613;SDS011;800;48.824;9.346;2022-08-21T06:39:49;2.50;;;2.30;;
1613;SDS011;800;48.824;9.346;2022-08-21T06:42:15;2.10;;;2.00;;
1613;SDS011;800;48.824;9.346;2022-08-21T06:44:42;2.90;;;2.70;;
1613;SDS011;800;48.824;9.346;2022-08-21T06:47:08;3.00;;;2.80;;
1613;SDS011;800;48.824;9.346;2022-08-21T06:49:34;2.40;;;2.10;;
1613;SDS011;800;48.824;9.346;2022-08-21T06:52:00;2.47;;;2.27;;
1613;SDS011;800;48.824;9.346;2022-08-21T06:54:26;2.77;;;2.57;;
1613;SDS011;800;48.824;9.346;2022-08-21T06:56:52;2.63;;;2.50;;
1613;SDS011;800;48.824;9.346;2022-08-21T06:59:18;2.70;;;2.50;;
1613;SDS011;800;48.824;9.346;2022-08-21T07:01:43;2.97;;;2.63;;
1613;SDS011;800;48.824;9.346;2022-08-21T07:04:10;3.30;;;2.57;;
1613;SDS011;800;48.824;9.346;2022-08-21T07:06:36;3.40;;;2.33;;
1613;SDS011;800;48.824;9.346;2022-08-21T07:09:02;3.10;;;2.30;;
1613;SDS011;800;48.824;9.346;2022-08-21T07:11:28;2.90;;;2.70;;
1613;SDS011;800;48.824;9.346;2022-08-21T07:13:54;3.40;;;2.40;;
1613;SDS011;800;48.824;9.346;2022-08-21T07:16:21;3.50;;;2.90;;
1613;SDS011;800;48.824;9.346;2022-08-21T07:18:47;2.97;;;2.67;;
1613;SDS011;800;48.824;9.346;2022-08-21T07:21:13;3.13;;;2.93;;
1613;SDS011;800;48.824;9.346;2022-08-21T07:23:41;3.07;;;2.87;;
1613;SDS011;800;48.824;9.346;2022-08-21T07:26:09;3.47;;;3.17;;
1613;SDS011;800;48.824;9.346;2022-08-21T07:28:36;3.00;;;2.80;;
1613;SDS011;800;48.824;9.346;2022-08-21T07:31:02;2.93;;;2.33;;
1613;SDS011;800;48.824;9.346;2022-08-21T07:33:29;4.10;;;3.37;;
1613;SDS011;800;48.824;9.346;2022-08-21T07:35:56;6.53;;;3.20;;
1613;SDS011;800;48.824;9.346;2022-08-21T07:38:22;3.53;;;3.23;;
1613;SDS011;800;48.824;9.346;2022-08-21T07:40:47;3.73;;;3.07;;
1613;SDS011;800;48.824;9.346;2022-08-21T07:43:15;2.60;;;2.40;;
1613;SDS011;800;48.824;9.346;2022-08-21T07:45:44;3.30;;;2.80;;
1613;SDS011;800;48.824;9.346;2022-08-21T07:48:10;7.00;;;3.77;;
1613;SDS011;800;48.824;9.346;2022-08-21T07:50:35;5.63;;;3.20;;
1613;SDS011;800;48.824;9.346;2022-08-21T07:53:02;5.00;;;3.30;;
1613;SDS011;800;48.824;9.346;2022-08-21T07:55:28;3.20;;;2.90;;
1613;SDS011;800;48.824;9.346;2022-08-21T07:57:53;7.47;;;3.60;;
1613;SDS011;800;48.824;9.346;2022-08-21T08:00:20;4.17;;;3.13;;
1613;SDS011;800;48.824;9.346;2022-08-21T08:02:49;5.63;;;3.67;;
1613;SDS011;800;48.824;9.346;2022-08-21T08:05:18;7.40;;;3.57;;
1613;SDS011;800;48.824;9.346;2022-08-21T08:07:47;4.23;;;3.90;;
1613;SDS011;800;48.824;9.346;2022-08-21T08:10:12;4.63;;;3.47;;
1613;SDS011;800;48.824;9.346;2022-08-21T08:12:39;4.27;;;3.87;;
1613;SDS011;800;48.824;9.346;2022-08-21T08:15:06;7.60;;;4.70;;
1613;SDS011;800;48.824;9.346;2022-08-21T08:17:34;7.70;;;4.27;;
1613;SDS011;800;48.824;9.346;2022-08-21T08:19:59;5.70;;;4.17;;
1613;SDS011;800;48.824;9.346;2022-08-21T08:22:28;4.23;;;3.70;;
1613;SDS011;800;48.824;9.346;2022-08-21T08:24:54;8.43;;;4.03;;
1613;SDS011;800;48.824;9.346;2022-08-21T08:27:20;4.20;;;3.80;;
1613;SDS011;800;48.824;9.346;2022-08-21T08:29:47;7.70;;;4.20;;
1613;SDS011;800;48.824;9.346;2022-08-21T08:32:13;4.27;;;3.87;;
1613;SDS011;800;48.824;9.346;2022-08-21T08:34:39;9.40;;;5.30;;
1613;SDS011;800;48.824;9.346;2022-08-21T08:37:05;6.07;;;3.87;;
1613;SDS011;800;48.824;9.346;2022-08-21T08:39:32;4.47;;;4.07;;
1613;SDS011;800;48.824;9.346;2022-08-21T08:44:34;4.70;;;4.30;;
1613;SDS011;800;48.824;9.346;2022-08-21T08:47:00;5.57;;;4.80;;
1613;SDS011;800;48.824;9.346;2022-08-21T08:49:29;6.17;;;4.70;;
1613;SDS011;800;48.824;9.346;2022-08-21T08:52:28;4.90;;;4.40;;
1613;SDS011;800;48.824;9.346;2022-08-21T08:57:55;7.37;;;4.37;;
1613;SDS011;800;48.824;9.346;2022-08-21T09:00:22;7.53;;;4.80;;
1613;SDS011;800;48.824;9.346;2022-08-21T09:02:48;5.90;;;4.57;;
1613;SDS011;800;48.824;9.346;2022-08-21T09:05:21;6.57;;;4.80;;
1613;SDS011;800;48.824;9.346;2022-08-21T09:07:55;6.80;;;3.90;;
1613;SDS011;800;48.824;9.346;2022-08-21T09:10:52;7.33;;;4.40;;
1613;SDS011;800;48.824;9.346;2022-08-21T09:16:31;5.07;;;4.40;;
1613;SDS011;800;48.824;9.346;2022-08-21T09:25:41;7.00;;;4.27;;
1613;SDS011;800;48.824;9.346;2022-08-21T09:28:11;4.50;;;4.10;;
1613;SDS011;800;48.824;9.346;2022-08-21T09:30:39;5.57;;;3.57;;
1613;SDS011;800;48.824;9.346;2022-08-21T09:33:06;4.87;;;4.47;;
1613;SDS011;800;48.824;9.346;2022-08-21T09:35:32;5.10;;;4.07;;
1613;SDS011;800;48.824;9.346;2022-08-21T09:38:01;4.00;;;3.70;;
1613;SDS011;800;48.824;9.346;2022-08-21T09:45:39;4.13;;;3.73;;
1613;SDS011;800;48.824;9.346;2022-08-21T09:50:44;5.30;;;4.00;;
1613;SDS011;800;48.824;9.346;2022-08-21T09:53:28;4.10;;;3.80;;
1613;SDS011;800;48.824;9.346;2022-08-21T09:55:56;4.50;;;3.90;;
1613;SDS011;800;48.824;9.346;2022-08-21T09:58:45;4.10;;;3.57;;
1613;SDS011;800;48.824;9.346;2022-08-21T10:01:18;6.73;;;3.90;;
1613;SDS011;800;48.824;9.346;2022-08-21T10:03:46;5.77;;;3.63;;
1613;SDS011;800;48.824;9.346;2022-08-21T10:06:22;5.23;;;3.60;;
1613;SDS011;800;48.824;9.346;2022-08-21T10:08:50;5.10;;;3.73;;
1613;SDS011;800;48.824;9.346;2022-08-21T10:11:16;6.03;;;3.83;;
1613;SDS011;800;48.824;9.346;2022-08-21T10:13:54;4.70;;;3.60;;
1613;SDS011;800;48.824;9.346;2022-08-21T10:16:52;5.77;;;3.90;;
1613;SDS011;800;48.824;9.346;2022-08-21T10:33:46;4.07;;;3.30;;
1613;SDS011;800;48.824;9.346;2022-08-21T10:36:26;4.90;;;3.33;;
1613;SDS011;800;48.824;9.346;2022-08-21T10:39:06;5.57;;;4.30;;
1613;SDS011;800;48.824;9.346;2022-08-21T10:44:29;5.20;;;3.17;;
1613;SDS011;800;48.824;9.346;2022-08-21T10:47:18;4.90;;;3.50;;
1613;SDS011;800;48.824;9.346;2022-08-21T10:50:09;6.00;;;4.10;;
1613;SDS011;800;48.824;9.346;2022-08-21T10:55:39;5.50;;;3.87;;
1613;SDS011;800;48.824;9.346;2022-08-21T10:58:14;7.33;;;3.77;;
1613;SDS011;800;48.824;9.346;2022-08-21T11:00:47;5.03;;;3.33;;
1613;SDS011;800;48.824;9.346;2022-08-21T11:11:04;8.40;;;3.70;;
1613;SDS011;800;48.824;9.346;2022-08-21T11:16:51;3.77;;;3.23;;
1613;SDS011;800;48.824;9.346;2022-08-21T11:19:28;6.20;;;3.70;;
1613;SDS011;800;48.824;9.346;2022-08-21T11:21:59;6.80;;;4.17;;
1613;SDS011;800;48.824;9.346;2022-08-21T11:24:32;5.00;;;3.27;;
1613;SDS011;800;48.824;9.346;2022-08-21T11:27:13;3.67;;;3.10;;
1613;SDS011;800;48.824;9.346;2022-08-21T11:29:52;4.97;;;3.70;;
1613;SDS011;800;48.824;9.346;2022-08-21T11:32:32;4.17;;;3.77;;
1613;SDS011;800;48.824;9.346;2022-08-21T11:43:00;3.97;;;3.30;;
1613;SDS011;800;48.824;9.346;2022-08-21T11:50:40;6.90;;;4.03;;
1613;SDS011;800;48.824;9.346;2022-08-21T11:53:09;4.40;;;3.50;;
1613;SDS011;800;48.824;9.346;2022-08-21T11:55:53;4.40;;;3.23;;
1613;SDS011;800;48.824;9.346;2022-08-21T11:58:27;4.03;;;3.23;;
1613;SDS011;800;48.824;9.346;2022-08-21T12:01:09;4.17;;;3.13;;
1613;SDS011;800;48.824;9.346;2022-08-21T12:03:41;3.83;;;3.40;;
1613;SDS011;800;48.824;9.346;2022-08-21T12:06:16;4.80;;;2.80;;
1613;SDS011;800;48.824;9.346;2022-08-21T12:09:08;4.27;;;3.40;;
1613;SDS011;800;48.824;9.346;2022-08-21T12:11:48;4.23;;;3.80;;
1613;SDS011;800;48.824;9.346;2022-08-21T12:14:15;3.60;;;3.30;;
1613;SDS011;800;48.824;9.346;2022-08-21T12:16:44;3.30;;;2.90;;
1613;SDS011;800;48.824;9.346;2022-08-21T12:21:54;3.30;;;3.00;;
1613;SDS011;800;48.824;9.346;2022-08-21T12:24:39;4.20;;;2.80;;
1613;SDS011;800;48.824;9.346;2022-08-21T12:29:50;4.50;;;2.60;;
1613;SDS011;800;48.824;9.346;2022-08-21T12:32:27;2.70;;;2.27;;
1613;SDS011;800;48.824;9.346;2022-08-21T12:40:09;3.30;;;2.90;;
1613;SDS011;800;48.824;9.346;2022-08-21T12:42:49;4.27;;;3.73;;
1613;SDS011;800;48.824;9.346;2022-08-21T12:45:23;5.17;;;3.63;;
1613;SDS011;800;48.824;9.346;2022-08-21T12:50:36;5.30;;;3.90;;
1613;SDS011;800;48.824;9.346;2022-08-21T12:55:54;4.40;;;3.10;;
1613;SDS011;800;48.824;9.346;2022-08-21T12:58:26;7.50;;;4.00;;
1613;SDS011;800;48.824;9.346;2022-08-21T13:00:58;3.43;;;3.20;;
1613;SDS011;800;48.824;9.346;2022-08-21T13:03:30;4.30;;;3.17;;
1613;SDS011;800;48.824;9.346;2022-08-21T13:05:57;5.83;;;3.30;;
1613;SDS011;800;48.824;9.346;2022-08-21T13:08:24;3.50;;;3.20;;
1613;SDS011;800;48.824;9.346;2022-08-21T13:10:56;4.17;;;3.17;;
1613;SDS011;800;48.824;9.346;2022-08-21T13:13:25;3.30;;;2.97;;
1613;SDS011;800;48.824;9.346;2022-08-21T13:15:56;6.10;;;3.13;;
1613;SDS011;800;48.824;9.346;2022-08-21T13:18:32;3.53;;;2.97;;
1613;SDS011;800;48.824;9.346;2022-08-21T13:21:06;5.63;;;3.17;;
1613;SDS011;800;48.824;9.346;2022-08-21T13:23:36;3.90;;;2.70;;
1613;SDS011;800;48.824;9.346;2022-08-21T13:26:11;3.50;;;3.20;;
1613;SDS011;800;48.824;9.346;2022-08-21T13:28:47;3.30;;;2.90;;
1613;SDS011;800;48.824;9.346;2022-08-21T13:31:19;6.80;;;3.50;;
1613;SDS011;800;48.824;9.346;2022-08-21T13:33:49;3.70;;;3.37;;
1613;SDS011;800;48.824;9.346;2022-08-21T13:36:29;6.23;;;3.87;;
1613;SDS011;800;48.824;9.346;2022-08-21T13:38:58;4.50;;;3.03;;
1613;SDS011;800;48.824;9.346;2022-08-21T13:41:26;3.43;;;3.03;;
1613;SDS011;800;48.824;9.346;2022-08-21T13:44:01;3.77;;;3.10;;
1613;SDS011;800;48.824;9.346;2022-08-21T13:46:51;3.60;;;2.90;;
1613;SDS011;800;48.824;9.346;2022-08-21T13:49:19;7.80;;;3.20;;
1613;SDS011;800;48.824;9.346;2022-08-21T13:51:50;2.80;;;2.57;;
1613;SDS011;800;48.824;9.346;2022-08-21T13:54:28;4.60;;;2.93;;
1613;SDS011;800;48.824;9.346;2022-08-21T13:57:14;3.13;;;2.80;;
1613;SDS011;800;48.824;9.346;2022-08-21T13:59:45;3.40;;;3.10;;
1613;SDS011;800;48.824;9.346;2022-08-21T14:04:53;3.30;;;2.97;;
1613;SDS011;800;48.824;9.346;2022-08-21T14:07:29;3.60;;;2.57;;
1613;SDS011;800;48.824;9.346;2022-08-21T14:10:01;3.77;;;3.00;;
1613;SDS011;800;48.824;9.346;2022-08-21T14:12:30;4.80;;;3.40;;
1613;SDS011;800;48.824;9.346;2022-08-21T14:15:07;4.17;;;3.10;;
1613;SDS011;800;48.824;9.346;2022-08-21T14:17:35;5.97;;;3.33;;
1613;SDS011;800;48.824;9.346;2022-08-21T14:20:04;3.00;;;2.70;;
1613;SDS011;800;48.824;9.346;2022-08-21T14:22:36;5.53;;;3.37;;
1613;SDS011;800;48.824;9.346;2022-08-21T14:25:13;4.00;;;2.83;;
1613;SDS011;800;48.824;9.346;2022-08-21T14:30:44;4.13;;;3.07;;
1613;SDS011;800;48.824;9.346;2022-08-21T14:33:11;5.00;;;3.83;;
1613;SDS011;800;48.824;9.346;2022-08-21T14:35:43;4.07;;;3.30;;
1613;SDS011;800;48.824;9.346;2022-08-21T14:38:13;3.47;;;3.17;;
1613;SDS011;800;48.824;9.346;2022-08-21T14:40:41;3.57;;;3.27;;
1613;SDS011;800;48.824;9.346;2022-08-21T14:43:08;3.63;;;3.33;;
1613;SDS011;800;48.824;9.346;2022-08-21T14:45:34;3.77;;;3.40;;
1613;SDS011;800;48.824;9.346;2022-08-21T14:48:01;6.20;;;3.43;;
1613;SDS011;800;48.824;9.346;2022-08-21T14:50:28;4.13;;;3.27;;
1613;SDS011;800;48.824;9.346;2022-08-21T14:52:54;3.50;;;3.20;;
1613;SDS011;800;48.824;9.346;2022-08-21T14:55:19;3.70;;;2.80;;
1613;SDS011;800;48.824;9.346;2022-08-21T14:57:46;3.10;;;2.80;;
1613;SDS011;800;48.824;9.346;2022-08-21T15:00:23;4.33;;;2.90;;
1613;SDS011;800;48.824;9.346;2022-08-21T15:02:50;3.27;;;2.80;;
1613;SDS011;800;48.824;9.346;2022-08-21T15:05:16;4.00;;;3.03;;
1613;SDS011;800;48.824;9.346;2022-08-21T15:07:43;3.10;;;2.80;;
1613;SDS011;800;48.824;9.346;2022-08-21T15:10:09;4.50;;;3.07;;
1613;SDS011;800;48.824;9.346;2022-08-21T15:12:36;4.33;;;3.33;;
1613;SDS011;800;48.824;9.346;2022-08-21T15:15:04;4.87;;;2.90;;
1613;SDS011;800;48.824;9.346;2022-08-21T15:17:30;2.97;;;2.77;;
1613;SDS011;800;48.824;9.346;2022-08-21T15:19:56;5.47;;;4.00;;
1613;SDS011;800;48.824;9.346;2022-08-21T15:22:22;3.63;;;3.30;;
1613;SDS011;800;48.824;9.346;2022-08-21T15:24:47;4.80;;;3.03;;
1613;SDS011;800;48.824;9.346;2022-08-21T15:27:13;3.63;;;2.70;;
1613;SDS011;800;48.824;9.346;2022-08-21T15:29:41;4.20;;;3.13;;
1613;SDS011;800;48.824;9.346;2022-08-21T15:32:20;4.00;;;3.27;;
1613;SDS011;800;48.824;9.346;2022-08-21T15:34:50;3.53;;;3.07;;
1613;SDS011;800;48.824;9.346;2022-08-21T15:37:16;4.67;;;3.13;;
1613;SDS011;800;48.824;9.346;2022-08-21T15:39:43;3.20;;;3.00;;
1613;SDS011;800;48.824;9.346;2022-08-21T15:42:09;6.30;;;3.53;;
1613;SDS011;800;48.824;9.346;2022-08-21T15:44:36;3.50;;;2.70;;
1613;SDS011;800;48.824;9.346;2022-08-21T15:47:03;4.20;;;3.07;;
1613;SDS011;800;48.824;9.346;2022-08-21T15:49:29;5.57;;;3.17;;
1613;SDS011;800;48.824;9.346;2022-08-21T15:51:55;4.50;;;3.33;;
1613;SDS011;800;48.824;9.346;2022-08-21T15:54:21;4.17;;;3.20;;
1613;SDS011;800;48.824;9.346;2022-08-21T15:56:47;4.77;;;3.40;;
1613;SDS011;800;48.824;9.346;2022-08-21T15:59:17;3.67;;;3.00;;
1613;SDS011;800;48.824;9.346;2022-08-21T16:01:46;2.90;;;2.50;;
1613;SDS011;800;48.824;9.346;2022-08-21T16:04:15;4.40;;;3.10;;
1613;SDS011;800;48.824;9.346;2022-08-21T16:06:46;3.50;;;3.00;;
1613;SDS011;800;48.824;9.346;2022-08-21T16:09:14;3.73;;;3.27;;
1613;SDS011;800;48.824;9.346;2022-08-21T16:11:40;3.57;;;3.27;;
1613;SDS011;800;48.824;9.346;2022-08-21T16:14:06;3.40;;;2.80;;
1613;SDS011;800;48.824;9.346;2022-08-21T16:16:32;4.50;;;3.17;;
1613;SDS011;800;48.824;9.346;2022-08-21T16:18:59;3.10;;;2.70;;
1613;SDS011;800;48.824;9.346;2022-08-21T16:21:27;6.10;;;3.33;;
1613;SDS011;800;48.824;9.346;2022-08-21T16:23:52;3.20;;;2.50;;
1613;SDS011;800;48.824;9.346;2022-08-21T16:26:18;3.77;;;2.80;;
1613;SDS011;800;48.824;9.346;2022-08-21T16:28:44;3.57;;;2.90;;
1613;SDS011;800;48.824;9.346;2022-08-21T16:31:10;3.23;;;2.57;;
1613;SDS011;800;48.824;9.346;2022-08-21T16:33:38;6.23;;;2.63;;
1613;SDS011;800;48.824;9.346;2022-08-21T16:36:08;2.50;;;2.23;;
1613;SDS011;800;48.824;9.346;2022-08-21T16:38:35;3.37;;;2.80;;
1613;SDS011;800;48.824;9.346;2022-08-21T16:41:03;6.37;;;2.67;;
1613;SDS011;800;48.824;9.346;2022-08-21T16:43:31;3.03;;;2.50;;
1613;SDS011;800;48.824;9.346;2022-08-21T16:45:57;3.90;;;2.50;;
1613;SDS011;800;48.824;9.346;2022-08-21T16:48:25;3.40;;;3.10;;
1613;SDS011;800;48.824;9.346;2022-08-21T16:50:53;3.80;;;2.80;;
1613;SDS011;800;48.824;9.346;2022-08-21T16:53:18;3.30;;;3.00;;
1613;SDS011;800;48.824;9.346;2022-08-21T16:55:44;2.90;;;2.60;;
1613;SDS011;800;48.824;9.346;2022-08-21T16:58:19;3.20;;;2.90;;
1613;SDS011;800;48.824;9.346;2022-08-21T17:00:49;8.90;;;3.07;;
1613;SDS011;800;48.824;9.346;2022-08-21T17:03:16;3.87;;;3.47;;
1613;SDS011;800;48.824;9.346;2022-08-21T17:05:45;2.93;;;2.73;;
1613;SDS011;800;48.824;9.346;2022-08-21T17:08:11;3.90;;;3.03;;
1613;SDS011;800;48.824;9.346;2022-08-21T17:10:37;2.63;;;2.53;;